Time;durP1;ratioP1;P1;durP2;ratioP2;P2;SDS_P1;SDS_P2;PMS_P1;PMS_P2;Temp;Humidity;BMP_temperature;BMP_pressure;BME280_temperature;BME280_humidity;BME280_pressure;Samples;Min_cycle;Max_cycle;Signal;HPM_P1;HPM_P2
2022/01/04 00:03:10;;;;;;;7.75;3.13;;;10.40;99.90;;;;;;10526402;28;20059;-65
2022/01/04 00:08:12;;;;;;;8.85;2.80;;;10.40;99.90;;;;;;10512946;28;20023;-66
2022/01/04 00:13:23;;;;;;;7.97;2.72;;;10.40;99.90;;;;;;10541228;28;20032;-65
2022/01/04 00:18:25;;;;;;;9.48;2.90;;;10.40;99.90;;;;;;10512665;28;20028;-60
2022/01/04 00:23:26;;;;;;;6.57;2.83;;;10.40;99.90;;;;;;10517275;28;20090;-64
2022/01/04 00:28:27;;;;;;;4.72;2.53;;;10.40;99.90;;;;;;10512475;28;20082;-64
2022/01/04 00:33:29;;;;;;;7.38;2.67;;;10.30;99.90;;;;;;10525784;28;20066;-61
2022/01/04 00:38:30;;;;;;;7.65;3.30;;;10.40;99.90;;;;;;10525794;28;20197;-66
2022/01/04 00:43:31;;;;;;;6.65;3.03;;;10.40;99.90;;;;;;10527571;28;20140;-65
2022/01/04 00:53:33;;;;;;;6.13;2.90;;;10.40;99.90;;;;;;10524230;28;20016;-66
2022/01/04 00:58:33;;;;;;;7.70;2.90;;;10.40;99.90;;;;;;10525199;28;20024;-62
2022/01/04 01:03:34;;;;;;;9.15;2.83;;;10.40;99.90;;;;;;10532381;28;20052;-64
2022/01/04 01:08:35;;;;;;;7.43;3.08;;;10.40;99.90;;;;;;10534018;28;20055;-64
2022/01/04 01:13:37;;;;;;;7.22;3.13;;;10.40;99.90;;;;;;10524357;28;20024;-64
2022/01/04 01:18:38;;;;;;;8.30;3.22;;;10.40;99.90;;;;;;10520002;28;20016;-63
2022/01/04 01:23:39;;;;;;;6.82;3.10;;;10.40;99.90;;;;;;10529431;28;20393;-63
2022/01/04 01:28:40;;;;;;;11.40;3.40;;;10.30;99.90;;;;;;10506202;28;20012;-65
2022/01/04 01:33:41;;;;;;;6.07;3.25;;;10.30;99.90;;;;;;10533505;28;20148;-62
2022/01/04 01:38:42;;;;;;;8.32;2.90;;;10.30;99.90;;;;;;10519536;28;20200;-63
2022/01/04 01:43:43;;;;;;;7.68;3.53;;;10.30;99.90;;;;;;10535576;28;20036;-65
2022/01/04 01:48:44;;;;;;;10.48;3.58;;;10.30;99.90;;;;;;10532967;28;20039;-64
2022/01/04 01:53:45;;;;;;;8.48;3.28;;;10.30;99.90;;;;;;10532749;28;20036;-61
2022/01/04 01:58:46;;;;;;;9.27;3.53;;;10.30;99.90;;;;;;10519053;28;20491;-64
2022/01/04 02:03:47;;;;;;;9.10;3.38;;;10.30;99.90;;;;;;10532365;28;20182;-59
2022/01/04 02:08:47;;;;;;;9.18;3.85;;;10.30;99.90;;;;;;10519016;28;20439;-62
2022/01/04 02:13:48;;;;;;;10.73;3.80;;;10.30;99.90;;;;;;10535145;28;20020;-67
2022/01/04 02:18:49;;;;;;;6.03;3.50;;;10.30;99.90;;;;;;10519643;28;20141;-63
2022/01/04 02:23:49;;;;;;;8.43;3.58;;;10.30;99.90;;;;;;10532482;28;20094;-65
2022/01/04 02:28:51;;;;;;;8.20;3.45;;;10.30;99.90;;;;;;10530880;28;20447;-65
2022/01/04 02:33:52;;;;;;;10.27;3.75;;;10.30;99.90;;;;;;10530842;28;20024;-64
2022/01/04 02:38:52;;;;;;;10.77;4.50;;;10.30;99.90;;;;;;10530995;28;20467;-66
2022/01/04 02:43:53;;;;;;;10.07;4.07;;;10.30;99.90;;;;;;10522659;28;20506;-64
2022/01/04 02:48:54;;;;;;;10.00;3.90;;;10.30;99.90;;;;;;10522389;28;20490;-65
2022/01/04 02:53:55;;;;;;;7.85;3.63;;;10.30;99.90;;;;;;10517384;28;20032;-63
2022/01/04 02:59:02;;;;;;;8.55;3.97;;;10.30;99.90;;;;;;10530005;28;20016;-63
2022/01/04 03:04:03;;;;;;;10.32;4.00;;;10.30;99.90;;;;;;10515628;28;20090;-63
2022/01/04 03:09:05;;;;;;;7.07;3.90;;;10.40;99.90;;;;;;10515968;28;20024;-66
2022/01/04 03:14:06;;;;;;;8.32;4.25;;;10.30;99.90;;;;;;10532735;28;20470;-64
2022/01/04 03:19:07;;;;;;;7.70;3.83;;;10.30;99.90;;;;;;10523609;28;20019;-66
2022/01/04 03:24:10;;;;;;;10.45;4.18;;;10.30;99.90;;;;;;10514511;28;20543;-66
2022/01/04 03:29:13;;;;;;;7.82;4.15;;;10.30;99.90;;;;;;10515905;28;20031;-62
2022/01/04 03:34:14;;;;;;;8.25;3.97;;;10.30;99.90;;;;;;10528650;28;20039;-65
2022/01/04 03:39:15;;;;;;;11.23;4.40;;;10.30;99.90;;;;;;10528338;28;20077;-65
2022/01/04 03:44:19;;;;;;;8.77;3.72;;;10.30;99.90;;;;;;10531173;28;20039;-66
2022/01/04 03:49:21;;;;;;;12.25;4.18;;;10.30;99.90;;;;;;10528033;28;20122;-65
2022/01/04 03:54:22;;;;;;;10.05;4.35;;;10.30;99.90;;;;;;10514740;28;20482;-63
2022/01/04 03:59:23;;;;;;;6.68;3.70;;;10.30;99.90;;;;;;10527845;28;20028;-62
2022/01/04 04:04:25;;;;;;;8.25;4.13;;;10.40;99.90;;;;;;10526305;28;20044;-66
2022/01/04 04:09:26;;;;;;;10.60;4.10;;;10.30;99.90;;;;;;10486006;28;20028;-66
2022/01/04 04:14:27;;;;;;;9.68;4.68;;;10.30;99.90;;;;;;10519054;28;20036;-63
2022/01/04 04:19:28;;;;;;;7.40;4.20;;;10.30;99.90;;;;;;10498991;28;20020;-64
2022/01/04 04:24:29;;;;;;;8.73;4.30;;;10.30;99.90;;;;;;10517114;28;20048;-64
2022/01/04 04:29:29;;;;;;;9.07;4.10;;;10.30;99.90;;;;;;10514090;28;20024;-66
2022/01/04 04:34:30;;;;;;;10.13;4.95;;;10.40;99.90;;;;;;10528951;28;20028;-64
2022/01/04 04:39:31;;;;;;;8.38;4.30;;;10.30;99.90;;;;;;10535816;28;20529;-66
2022/01/04 04:44:32;;;;;;;9.10;4.43;;;10.30;99.90;;;;;;10537901;28;20222;-63
2022/01/04 04:49:33;;;;;;;9.25;3.97;;;10.30;99.90;;;;;;10535348;28;20502;-64
2022/01/04 04:54:34;;;;;;;9.90;4.43;;;10.30;99.90;;;;;;10521901;28;20032;-66
2022/01/04 04:59:35;;;;;;;10.15;4.63;;;10.30;99.90;;;;;;10528998;28;20040;-64
2022/01/04 05:04:36;;;;;;;8.23;4.30;;;10.30;99.90;;;;;;10517275;28;20134;-65
2022/01/04 05:09:37;;;;;;;9.95;4.53;;;10.30;99.90;;;;;;10521028;28;20039;-65
2022/01/04 05:14:39;;;;;;;11.10;3.67;;;10.30;99.90;;;;;;10538326;28;20054;-63
2022/01/04 05:19:40;;;;;;;9.52;4.22;;;10.40;99.90;;;;;;10537050;28;20016;-62
2022/01/04 05:24:41;;;;;;;10.02;4.43;;;10.30;99.90;;;;;;10525169;28;20043;-62
2022/01/04 05:29:41;;;;;;;10.10;4.57;;;10.30;99.90;;;;;;10547340;28;20386;-66
2022/01/04 05:34:42;;;;;;;10.63;5.18;;;10.40;99.90;;;;;;10520916;28;20034;-63
2022/01/04 05:39:43;;;;;;;9.52;4.45;;;10.30;99.90;;;;;;10534730;28;20016;-65
2022/01/04 05:44:44;;;;;;;10.80;4.75;;;10.30;99.90;;;;;;10534080;28;20040;-63
2022/01/04 05:49:44;;;;;;;9.13;4.88;;;10.30;99.90;;;;;;10531615;28;20028;-65
2022/01/04 05:54:48;;;;;;;7.80;4.20;;;10.30;99.90;;;;;;10502799;28;20024;-66
2022/01/04 05:59:49;;;;;;;10.02;5.00;;;10.30;99.90;;;;;;10516566;28;20065;-66
2022/01/04 06:04:50;;;;;;;10.50;4.55;;;10.30;99.90;;;;;;10517979;28;20166;-66
2022/01/04 06:09:53;;;;;;;10.45;5.63;;;10.30;99.90;;;;;;10524309;28;20028;-63
2022/01/04 06:14:57;;;;;;;10.35;5.07;;;10.30;99.90;;;;;;10546354;28;20032;-66
2022/01/04 06:19:59;;;;;;;10.85;5.32;;;10.30;99.90;;;;;;10518458;28;20054;-65
2022/01/04 06:25:00;;;;;;;13.65;5.70;;;10.30;99.90;;;;;;10520609;28;20123;-65
2022/01/04 06:30:02;;;;;;;13.48;5.30;;;10.40;99.90;;;;;;10516805;28;20114;-62
2022/01/04 06:35:04;;;;;;;11.35;5.35;;;10.20;99.90;;;;;;10530902;28;20035;-66
2022/01/04 06:40:05;;;;;;;9.60;5.00;;;10.30;99.90;;;;;;10533252;28;20034;-64
2022/01/04 06:45:07;;;;;;;9.52;5.60;;;10.30;99.90;;;;;;10532033;28;20565;-65
2022/01/04 06:50:08;;;;;;;10.38;5.85;;;10.30;99.90;;;;;;10532166;28;20130;-65
2022/01/04 06:55:09;;;;;;;9.65;5.72;;;10.30;99.90;;;;;;10530023;28;20032;-62
2022/01/04 07:00:11;;;;;;;12.10;6.50;;;10.30;99.90;;;;;;10530449;28;20041;-65
2022/01/04 07:05:11;;;;;;;11.93;5.55;;;10.30;99.90;;;;;;10521303;28;20051;-66
2022/01/04 07:10:12;;;;;;;10.95;6.22;;;10.30;99.90;;;;;;10525072;28;20108;-67
2022/01/04 07:15:13;;;;;;;11.90;6.20;;;10.30;99.90;;;;;;10533499;28;20390;-65
2022/01/04 07:20:14;;;;;;;11.02;5.85;;;10.30;99.90;;;;;;10517611;28;20020;-65
2022/01/04 07:25:14;;;;;;;12.38;6.63;;;10.20;99.90;;;;;;10513510;28;20039;-66
2022/01/04 07:30:15;;;;;;;11.57;5.75;;;10.20;99.90;;;;;;10512328;28;20026;-62
2022/01/04 07:35:16;;;;;;;14.23;6.88;;;10.30;99.90;;;;;;10528385;28;20058;-65
2022/01/04 07:40:17;;;;;;;14.27;6.88;;;10.20;99.90;;;;;;10530949;28;20435;-66
2022/01/04 07:45:18;;;;;;;10.43;6.13;;;10.20;99.90;;;;;;10528231;28;20212;-62
2022/01/04 07:50:19;;;;;;;14.10;7.13;;;10.20;99.90;;;;;;10528278;28;20192;-67
2022/01/04 07:55:20;;;;;;;13.48;6.57;;;10.20;99.90;;;;;;10514587;28;20032;-61
2022/01/04 08:00:21;;;;;;;13.70;6.85;;;10.20;99.90;;;;;;10516340;28;20032;-64
2022/01/04 08:05:23;;;;;;;12.80;6.57;;;10.20;99.90;;;;;;10514166;28;20052;-63
2022/01/04 08:10:24;;;;;;;13.68;6.50;;;10.20;99.90;;;;;;10524252;28;20028;-63
2022/01/04 08:15:26;;;;;;;13.52;6.95;;;10.20;99.90;;;;;;10530258;28;20028;-64
2022/01/04 08:20:26;;;;;;;12.35;6.05;;;10.20;99.90;;;;;;10512237;28;20047;-63
2022/01/04 08:25:27;;;;;;;12.90;6.93;;;10.20;99.90;;;;;;10491446;28;20044;-64
2022/01/04 08:30:28;;;;;;;11.10;6.47;;;10.20;99.90;;;;;;10502601;28;20024;-61
2022/01/04 08:35:29;;;;;;;14.40;6.53;;;10.20;99.90;;;;;;10526295;28;20085;-62
2022/01/04 08:40:30;;;;;;;11.20;5.93;;;10.20;99.90;;;;;;10530206;28;20418;-63
2022/01/04 08:45:31;;;;;;;12.88;6.68;;;10.20;99.90;;;;;;10502490;28;20032;-66
2022/01/04 08:50:33;;;;;;;14.15;6.72;;;10.20;99.90;;;;;;10470292;28;20037;-62
2022/01/04 08:55:34;;;;;;;12.77;6.75;;;10.20;99.90;;;;;;10488575;28;20028;-66
2022/01/04 09:00:36;;;;;;;14.95;6.20;;;10.20;99.90;;;;;;10516058;28;20069;-63
2022/01/04 09:05:37;;;;;;;12.80;7.10;;;10.20;99.90;;;;;;10463891;28;20147;-61
2022/01/04 09:10:38;;;;;;;14.95;6.97;;;10.20;99.90;;;;;;10449771;28;20028;-63
2022/01/04 09:20:39;;;;;;;15.93;7.35;;;10.30;99.90;;;;;;10457953;28;20029;-63
2022/01/04 09:25:40;;;;;;;13.20;6.75;;;10.20;99.90;;;;;;10473121;28;20045;-62
2022/01/04 09:30:43;;;;;;;13.85;6.93;;;10.20;99.90;;;;;;10457605;28;20091;-65
2022/01/04 09:35:44;;;;;;;15.38;5.95;;;10.20;99.90;;;;;;10449650;28;20074;-65
2022/01/04 09:40:45;;;;;;;9.05;4.88;;;10.20;99.90;;;;;;10455055;28;20382;-66
2022/01/04 09:45:47;;;;;;;10.85;4.95;;;10.30;99.90;;;;;;10459152;28;20123;-72
2022/01/04 09:50:49;;;;;;;9.00;4.82;;;10.30;99.90;;;;;;10490640;28;20116;-66
2022/01/04 09:55:55;;;;;;;11.20;4.90;;;10.30;99.90;;;;;;10452444;28;20024;-61
2022/01/04 10:00:56;;;;;;;8.32;4.30;;;10.30;99.90;;;;;;10451502;28;20053;-66
2022/01/04 10:06:07;;;;;;;6.70;3.55;;;10.30;99.90;;;;;;10483224;28;20123;-64
2022/01/04 10:11:08;;;;;;;7.05;3.63;;;10.30;99.90;;;;;;10502635;28;20468;-61
2022/01/04 10:16:16;;;;;;;8.23;3.33;;;10.30;99.90;;;;;;10531560;28;20032;-59
2022/01/04 10:21:17;;;;;;;6.70;3.40;;;10.30;99.90;;;;;;10531848;28;20043;-65
2022/01/04 10:26:32;;;;;;;4.95;2.58;;;10.30;99.90;;;;;;10534352;28;20048;-62
2022/01/04 10:31:38;;;;;;;5.60;2.97;;;10.30;99.90;;;;;;10529332;28;20040;-64
2022/01/04 10:36:39;;;;;;;5.72;2.85;;;10.30;99.90;;;;;;10529840;28;20036;-65
2022/01/04 10:41:40;;;;;;;7.32;3.78;;;10.30;99.90;;;;;;10518904;28;20044;-66
2022/01/04 10:46:42;;;;;;;5.80;2.70;;;10.30;99.90;;;;;;10529748;28;20122;-65
2022/01/04 10:51:44;;;;;;;5.80;2.80;;;10.30;99.90;;;;;;10528014;28;20027;-64
2022/01/04 10:56:46;;;;;;;7.35;2.58;;;10.30;99.90;;;;;;10529900;28;20023;-64
2022/01/04 11:01:50;;;;;;;5.40;2.33;;;10.30;99.90;;;;;;10527324;28;20049;-62
2022/01/04 11:06:59;;;;;;;4.47;1.85;;;10.30;99.90;;;;;;10523485;28;20048;-65
2022/01/04 11:12:00;;;;;;;;;;;10.40;99.90;;;;;;10532789;28;20266;-68
2022/01/04 11:17:01;;;;;;;4.18;1.92;;;10.30;99.90;;;;;;10520042;28;19908;-70
2022/01/04 11:22:08;;;;;;;4.50;2.03;;;10.40;99.90;;;;;;10528999;28;20494;-62
2022/01/04 11:27:09;;;;;;;3.40;1.70;;;10.40;99.90;;;;;;10493178;28;20107;-66
2022/01/04 11:32:15;;;;;;;6.63;1.83;;;10.40;99.90;;;;;;10487911;28;20036;-67
2022/01/04 11:37:21;;;;;;;2.17;1.30;;;10.00;99.90;;;;;;10518841;28;20047;-65
2022/01/04 11:42:31;;;;;;;4.35;1.50;;;10.30;99.90;;;;;;10530138;28;20515;-63
2022/01/04 11:47:32;;;;;;;6.63;1.45;;;10.30;99.90;;;;;;10527054;28;20409;-62
2022/01/04 11:52:38;;;;;;;7.90;1.88;;;10.30;99.90;;;;;;10527577;28;20551;-61
2022/01/04 11:57:39;;;;;;;6.45;1.67;;;10.30;99.90;;;;;;10527490;28;20071;-66
2022/01/04 12:02:41;;;;;;;5.05;1.73;;;10.30;99.90;;;;;;10526679;28;20028;-67
2022/01/04 12:07:45;;;;;;;6.47;1.58;;;10.30;99.90;;;;;;10498001;28;20055;-65
2022/01/04 12:13:05;;;;;;;7.35;1.33;;;10.40;99.90;;;;;;10504933;28;20432;-65
2022/01/04 12:18:09;;;;;;;6.47;1.50;;;10.40;99.90;;;;;;10493291;28;20556;-66
2022/01/04 12:23:31;;;;;;;5.13;1.30;;;10.40;99.90;;;;;;10518890;28;20517;-63
2022/01/04 12:28:36;;;;;;;7.93;1.50;;;10.40;99.90;;;;;;10504181;28;20046;-62
2022/01/04 12:33:37;;;;;;;6.65;1.52;;;10.40;99.90;;;;;;10526414;28;20123;-60
2022/01/04 12:38:38;;;;;;;6.65;1.60;;;10.40;99.90;;;;;;10526420;28;20558;-65
2022/01/04 12:43:39;;;;;;;3.70;1.30;;;10.40;99.90;;;;;;10513264;28;20545;-60
2022/01/04 12:48:52;;;;;;;2.80;1.15;;;10.40;99.90;;;;;;10502266;28;20047;-59
2022/01/04 12:53:54;;;;;;;3.92;1.35;;;10.40;99.90;;;;;;10525233;28;20174;-61
2022/01/04 12:58:56;;;;;;;4.45;1.48;;;10.40;99.90;;;;;;10532914;28;20082;-61
2022/01/04 13:03:59;;;;;;;3.40;1.23;;;10.30;99.90;;;;;;10533336;28;20051;-63
2022/01/04 13:09:03;;;;;;;3.40;1.20;;;10.30;99.90;;;;;;10533321;28;20402;-60
2022/01/04 13:14:07;;;;;;;4.28;1.02;;;10.30;99.90;;;;;;10534534;28;20035;-60
2022/01/04 13:19:18;;;;;;;3.15;1.20;;;10.30;99.90;;;;;;10534331;28;20032;-60
2022/01/04 13:24:49;;;;;;;4.60;1.58;;;10.30;99.90;;;;;;10535237;28;20503;-64
2022/01/04 13:29:51;;;;;;;3.35;0.85;;;10.30;99.90;;;;;;10504632;28;20127;-59
2022/01/04 13:35:04;;;;;;;5.07;1.48;;;10.30;99.90;;;;;;10532611;28;20031;-64
2022/01/04 13:40:10;;;;;;;5.75;1.05;;;10.30;99.90;;;;;;10516762;28;20031;-65
2022/01/04 13:45:17;;;;;;;2.30;0.93;;;10.30;99.90;;;;;;10532008;28;20044;-65
2022/01/04 13:50:49;;;;;;;3.35;1.00;;;10.30;99.90;;;;;;10531914;28;20020;-59
2022/01/04 13:56:19;;;;;;;3.92;0.90;;;10.20;99.90;;;;;;10515515;28;20044;-64
2022/01/04 14:01:22;;;;;;;3.53;0.90;;;10.20;99.90;;;;;;10489828;28;20036;-60
2022/01/04 14:06:31;;;;;;;6.28;0.90;;;10.20;99.90;;;;;;10493190;28;20105;-61
2022/01/04 14:11:38;;;;;;;2.75;1.05;;;10.20;99.90;;;;;;10508062;28;20031;-63
2022/01/04 14:17:02;;;;;;;2.35;0.77;;;10.20;99.90;;;;;;10498491;28;20395;-60
2022/01/04 14:22:05;;;;;;;5.70;1.00;;;10.20;99.90;;;;;;10504384;28;20036;-60
2022/01/04 14:27:09;;;;;;;3.05;0.70;;;10.20;99.90;;;;;;10525879;28;20036;-64
2022/01/04 14:32:31;;;;;;;3.50;1.38;;;10.20;99.90;;;;;;10488619;28;20024;-58
2022/01/04 14:37:32;;;;;;;3.15;0.70;;;10.10;99.90;;;;;;10488550;28;20027;-61
2022/01/04 14:42:33;;;;;;;3.63;0.82;;;10.10;99.90;;;;;;10493782;28;20048;-65
2022/01/04 14:47:35;;;;;;;4.95;0.90;;;10.10;99.90;;;;;;10511669;28;20047;-63
2022/01/04 14:52:36;;;;;;;2.42;0.88;;;10.10;99.90;;;;;;10530443;28;20097;-64
2022/01/04 14:57:37;;;;;;;3.63;0.70;;;10.00;99.90;;;;;;10529137;28;20674;-65
2022/01/04 15:02:37;;;;;;;1.95;0.70;;;10.00;99.90;;;;;;10528791;28;20036;-62
2022/01/04 15:07:51;;;;;;;4.35;1.10;;;10.00;99.90;;;;;;10505429;28;20045;-61
2022/01/04 15:12:52;;;;;;;2.22;0.70;;;10.00;99.90;;;;;;10503334;28;20093;-60
2022/01/04 15:17:52;;;;;;;2.85;0.88;;;10.00;99.90;;;;;;10491711;28;20056;-60
2022/01/04 15:22:53;;;;;;;6.80;0.80;;;9.90;99.90;;;;;;10515558;28;20032;-59
2022/01/04 15:27:57;;;;;;;4.85;1.25;;;9.90;99.90;;;;;;10520230;28;20029;-60
2022/01/04 15:32:57;;;;;;;3.13;1.35;;;9.90;99.90;;;;;;10523433;28;20060;-61
2022/01/04 15:37:58;;;;;;;3.42;0.90;;;9.90;99.90;;;;;;10527829;28;20050;-59
2022/01/04 15:42:59;;;;;;;2.45;1.05;;;9.80;99.90;;;;;;10505283;28;20525;-59
2022/01/04 15:48:00;;;;;;;3.28;0.73;;;9.80;99.90;;;;;;10486707;28;20397;-60
2022/01/04 15:53:00;;;;;;;2.50;0.88;;;9.80;99.90;;;;;;10487795;28;20070;-61
2022/01/04 15:58:01;;;;;;;3.05;0.98;;;9.80;99.90;;;;;;10502608;28;20142;-59
2022/01/04 16:03:03;;;;;;;4.43;1.13;;;9.80;99.90;;;;;;10527875;28;20040;-65
2022/01/04 16:08:03;;;;;;;2.72;0.98;;;9.70;99.90;;;;;;10526178;28;20403;-65
2022/01/04 16:13:04;;;;;;;6.85;1.30;;;9.70;99.90;;;;;;10534278;28;20032;-63
2022/01/04 16:18:30;;;;;;;6.50;2.00;;;9.70;99.90;;;;;;10525996;28;20020;-64
2022/01/04 16:23:26;;;;;;;6.32;1.35;;;9.70;99.90;;;;;;10529784;28;20044;-63
2022/01/04 16:28:27;;;;;;;6.60;2.35;;;9.70;99.90;;;;;;10525338;28;20024;-64
2022/01/04 16:33:34;;;;;;;4.40;1.30;;;9.60;99.90;;;;;;10536425;28;20042;-61
2022/01/04 16:38:36;;;;;;;5.60;1.30;;;9.60;99.90;;;;;;10536172;28;20020;-59
2022/01/04 16:43:38;;;;;;;5.22;1.30;;;9.70;99.90;;;;;;10538085;28;20068;-65
2022/01/04 16:48:39;;;;;;;4.55;1.40;;;9.60;99.90;;;;;;10535492;28;20063;-62
2022/01/04 16:53:40;;;;;;;2.72;1.27;;;8.90;99.90;;;;;;10534575;28;20040;-65
2022/01/04 16:58:40;;;;;;;4.40;1.10;;;9.60;99.90;;;;;;10527194;28;20414;-61
2022/01/04 17:03:41;;;;;;;3.67;1.30;;;9.60;99.90;;;;;;10527218;28;20040;-63
2022/01/04 17:08:45;;;;;;;2.83;1.20;;;9.60;99.90;;;;;;10532778;28;20092;-60
2022/01/04 17:19:06;;;;;;;3.03;1.00;;;9.50;99.90;;;;;;10534559;28;20098;-65
2022/01/04 17:24:07;;;;;;;2.97;1.48;;;9.50;99.90;;;;;;10545269;28;20584;-68
2022/01/04 17:29:08;;;;;;;5.53;1.40;;;9.60;99.90;;;;;;10536592;28;20028;-68
2022/01/04 17:34:09;;;;;;;3.40;1.20;;;9.60;99.90;;;;;;10533192;28;20024;-65
2022/01/04 17:39:09;;;;;;;9.80;1.70;;;9.50;99.90;;;;;;10532619;28;20028;-63
2022/01/04 17:44:10;;;;;;;4.57;1.45;;;9.50;99.90;;;;;;10527272;28;20036;-65
2022/01/04 17:49:12;;;;;;;5.28;1.63;;;9.50;99.90;;;;;;10522382;28;20098;-65
2022/01/04 17:54:13;;;;;;;7.25;1.92;;;9.50;99.90;;;;;;10528441;28;20032;-65
2022/01/04 17:59:14;;;;;;;6.57;1.67;;;9.50;99.90;;;;;;10532861;28;20119;-65
2022/01/04 18:04:14;;;;;;;5.95;1.45;;;9.50;99.90;;;;;;10527400;28;20082;-65
2022/01/04 18:09:15;;;;;;;4.90;1.60;;;9.40;99.90;;;;;;10532278;28;20024;-64
2022/01/04 18:14:17;;;;;;;3.00;1.40;;;9.40;99.90;;;;;;10535634;28;20046;-61
2022/01/04 18:19:18;;;;;;;4.50;2.00;;;9.40;99.90;;;;;;10533918;28;20027;-62
2022/01/04 18:24:19;;;;;;;7.22;1.77;;;9.40;99.90;;;;;;10531055;28;20037;-62
2022/01/04 18:29:22;;;;;;;4.75;1.67;;;9.40;99.90;;;;;;10497959;28;20009;-67
2022/01/04 18:34:23;;;;;;;5.30;1.67;;;9.40;99.90;;;;;;10497673;28;20119;-64
2022/01/04 18:39:23;;;;;;;4.30;2.00;;;9.40;99.90;;;;;;10492532;28;20036;-65
2022/01/04 18:44:24;;;;;;;5.68;1.83;;;9.40;99.90;;;;;;10503586;28;20397;-59
2022/01/04 18:49:25;;;;;;;4.20;1.80;;;9.40;99.90;;;;;;10529662;28;20028;-59
2022/01/04 18:54:26;;;;;;;5.05;2.17;;;9.40;99.90;;;;;;10525832;28;20024;-63
2022/01/04 18:59:30;;;;;;;5.00;1.92;;;9.40;99.90;;;;;;10528955;28;20107;-61
2022/01/04 19:04:32;;;;;;;6.38;2.15;;;9.40;99.90;;;;;;10496742;28;20428;-61
2022/01/04 19:09:37;;;;;;;4.60;2.15;;;9.30;99.90;;;;;;10513029;28;20051;-61
2022/01/04 19:14:38;;;;;;;4.07;1.90;;;9.30;99.90;;;;;;10518667;28;20027;-62
2022/01/04 19:19:38;;;;;;;6.63;2.70;;;9.30;99.90;;;;;;10504679;28;20475;-63
2022/01/04 19:24:39;;;;;;;4.70;2.13;;;9.30;99.90;;;;;;10508828;28;20074;-62
2022/01/04 19:29:40;;;;;;;5.15;2.70;;;9.30;99.90;;;;;;10510532;28;20039;-63
2022/01/04 19:40:00;;;;;;;4.28;2.40;;;9.20;99.90;;;;;;10502686;28;20031;-59
2022/01/04 19:45:01;;;;;;;5.90;2.90;;;9.20;99.90;;;;;;10492449;28;20045;-59
2022/01/04 19:50:05;;;;;;;7.07;3.17;;;9.20;99.90;;;;;;10496296;28;20038;-66
2022/01/04 19:55:06;;;;;;;8.32;2.60;;;9.20;99.90;;;;;;10505370;28;20031;-60
2022/01/04 20:00:08;;;;;;;7.75;2.15;;;9.20;99.90;;;;;;10504231;28;20035;-59
2022/01/04 20:05:09;;;;;;;4.25;1.98;;;9.20;99.90;;;;;;10510871;28;20040;-59
2022/01/04 20:10:13;;;;;;;4.35;2.25;;;9.20;99.90;;;;;;10508762;28;20372;-64
2022/01/04 20:15:14;;;;;;;4.90;2.33;;;9.10;99.90;;;;;;10511876;28;20034;-60
2022/01/04 20:20:15;;;;;;;6.20;2.60;;;9.10;99.90;;;;;;10513995;28;20120;-66
2022/01/04 20:25:16;;;;;;;6.32;2.35;;;9.10;99.90;;;;;;10517039;28;20032;-60
2022/01/04 20:30:18;;;;;;;6.75;2.53;;;9.10;99.90;;;;;;10507879;28;20025;-66
2022/01/04 20:35:20;;;;;;;7.47;2.83;;;9.10;99.90;;;;;;10507256;28;20039;-60
2022/01/04 20:40:20;;;;;;;7.07;2.75;;;9.10;99.90;;;;;;10499267;28;20031;-61
2022/01/04 20:45:22;;;;;;;5.60;2.25;;;9.10;99.90;;;;;;10510313;28;20033;-64
2022/01/04 20:50:23;;;;;;;4.43;2.10;;;9.10;99.90;;;;;;10505139;28;20617;-64
2022/01/04 20:55:24;;;;;;;5.47;2.30;;;9.10;99.90;;;;;;10505952;28;20024;-64
2022/01/04 21:00:25;;;;;;;7.93;2.80;;;8.80;99.90;;;;;;10512522;28;20023;-59
2022/01/04 21:05:25;;;;;;;4.30;2.15;;;9.00;99.90;;;;;;10513242;28;20044;-64
2022/01/04 21:10:27;;;;;;;4.13;2.10;;;9.00;99.90;;;;;;10508803;28;20028;-64
2022/01/04 21:15:28;;;;;;;4.35;2.10;;;9.00;99.90;;;;;;10500304;28;20040;-61
2022/01/04 21:20:29;;;;;;;6.15;1.90;;;9.00;99.90;;;;;;10525508;28;20040;-59
2022/01/04 21:25:30;;;;;;;7.43;2.35;;;8.90;99.90;;;;;;10510342;28;20043;-66
2022/01/04 21:30:33;;;;;;;8.30;2.28;;;8.90;99.90;;;;;;10511958;28;20024;-65
2022/01/04 21:35:34;;;;;;;4.40;2.55;;;8.90;99.90;;;;;;10513152;28;20060;-64
2022/01/04 21:40:35;;;;;;;3.97;2.20;;;8.90;99.90;;;;;;10517391;28;20052;-65
2022/01/04 21:45:36;;;;;;;7.78;2.45;;;8.90;99.90;;;;;;10498564;28;20592;-67
2022/01/04 21:50:37;;;;;;;5.10;2.30;;;8.90;99.90;;;;;;10468258;28;20499;-64
2022/01/04 21:55:39;;;;;;;6.43;2.85;;;8.90;99.90;;;;;;10506642;28;20031;-62
2022/01/04 22:00:40;;;;;;;8.77;2.85;;;8.80;99.90;;;;;;10517374;28;20039;-66
2022/01/04 22:05:41;;;;;;;6.60;2.47;;;8.80;99.90;;;;;;10513698;28;20040;-61
2022/01/04 22:10:42;;;;;;;5.22;2.50;;;8.80;99.90;;;;;;10502298;28;20026;-61
2022/01/04 22:15:43;;;;;;;4.57;2.50;;;8.80;99.90;;;;;;10511973;28;20032;-64
2022/01/04 22:20:43;;;;;;;3.80;1.80;;;8.80;99.90;;;;;;10515964;28;20029;-59
2022/01/04 22:25:46;;;;;;;5.50;1.63;;;8.80;99.90;;;;;;10501211;28;20443;-65
2022/01/04 22:30:47;;;;;;;5.68;2.17;;;8.70;99.90;;;;;;10502452;28;20060;-59
2022/01/04 22:35:49;;;;;;;7.45;1.98;;;8.70;99.90;;;;;;10496931;28;20059;-66
2022/01/04 22:40:50;;;;;;;3.92;1.75;;;8.70;99.90;;;;;;10498685;28;20108;-63
2022/01/04 22:45:51;;;;;;;6.80;2.13;;;8.70;99.90;;;;;;10499892;28;20546;-60
2022/01/04 22:50:52;;;;;;;9.50;2.63;;;8.70;99.90;;;;;;10499651;28;20024;-61
2022/01/04 22:55:53;;;;;;;7.53;2.00;;;8.70;99.90;;;;;;10506443;28;20047;-62
2022/01/04 23:00:53;;;;;;;6.90;2.53;;;8.60;99.90;;;;;;10504932;28;20039;-64
2022/01/04 23:05:54;;;;;;;3.88;1.88;;;8.70;99.90;;;;;;10515705;28;20381;-63
2022/01/04 23:10:55;;;;;;;5.63;1.90;;;8.60;99.90;;;;;;10519269;28;20024;-67
2022/01/04 23:15:56;;;;;;;7.53;1.98;;;8.60;99.90;;;;;;10520370;28;20020;-60
2022/01/04 23:20:56;;;;;;;6.05;1.92;;;8.60;99.90;;;;;;10527554;28;20119;-58
2022/01/04 23:25:57;;;;;;;2.78;1.48;;;8.60;99.90;;;;;;10506289;28;20036;-60
2022/01/04 23:30:58;;;;;;;3.97;1.88;;;8.60;99.90;;;;;;10522556;28;20077;-63
2022/01/04 23:35:58;;;;;;;3.08;1.52;;;8.50;99.90;;;;;;10521557;28;20665;-59
2022/01/04 23:40:59;;;;;;;4.10;1.83;;;8.60;99.90;;;;;;10521381;28;20050;-60
2022/01/04 23:46:00;;;;;;;5.93;1.75;;;8.50;99.90;;;;;;10515438;28;20048;-63
2022/01/04 23:51:00;;;;;;;7.35;1.42;;;8.50;99.90;;;;;;10508603;28;20020;-58
2022/01/04 23:56:01;;;;;;;5.40;1.85;;;8.50;99.90;;;;;;10526510;28;20054;-61
